Bunch, OK

4:54 PM CDT on October 22, 2014 (GMT -0500)
Davis | Change Station
CLOSE
Current Station
Airport
Location: Muskogee,
Elevation: 610 ft
Nearby Weather Stations

Elev 610 ft 35.66 °N, 95.37 °W | Updated 1 hour ago

Clear
Clear
76 °F
Feels Like 76 °F
N
8
Wind Variable Wind from East

Today
High -- | Low -- °F
--% Chance of Precip.
Yesterday
High -- | Low -- °F
Precip. -- in
7:31 AM 6:34 PM
Waning Crescent, 1% visible
Pressure 30.11 in
Visibility 10.0 miles
Clouds Clear
Dew Point 57 °F
Humidity 52%
Rainfall 0.00 in
Snow Depth Not available.
UV 3 out of 12
Pollen 3.80 out of 12
Air Quality Not available.
Flu Activity No Activity
METAR KMKO 222053Z AUTO 10007KT 10SM CLR 24/14 A3013 RMK AO2 SLP196 T02440139 56019

More Conditions Fewer Conditions

Pressure 30.11 in
Visibility 10.0 miles
Clouds Clear
Dew Point 57 °F
Humidity 52%
Rainfall 0.00 in
Snow Depth Not available.
UV 3 out of 12
Pollen 3.80 out of 12
Air Quality Not available.
Flu Activity No Activity
METAR KMKO 222053Z AUTO 10007KT 10SM CLR 24/14 A3013 RMK AO2 SLP196 T02440139 56019

More Conditions Fewer Conditions

10-Day Weather Forecast

Almanac

Astronomy

Oct. 22, 2014 Rise Set
Actual Time 7:31 AM CDT 6:34 PM CDT
Civil Twilight 7:05 AM CDT 7:00 PM CDT
Nautical Twilight 6:35 AM CDT 7:30 PM CDT
Astronomical Twilight 6:06 AM CDT 7:59 PM CDT
Moon 6:16 AM CDT 6:00 PM CDT
Length of Visible Light 11h 54m
Length of Day
11h 02m
Tomorrow will be 2m 5s shorter.
Waning Crescent, 1% of the Moon is Illuminated
Today
Waning Crescent
Oct 23
New
Oct 30
First Quarter
Nov 6
Full
Nov 14
Last Quarter

Today's Extremes

State Highs State Lows

Community

WunderPhotos

Upload Photos

1,764,047 photos uploaded!

WunderBlogs® & News

Nearby

Snow Depth

Station Depth Elevation
No new snow has been reported.

Earthquake Activity

City Distance Mag. Time & Date
Boley, Oklahoma 104 miles 3.5 3:34 PM CDT
2014-10-20
Minimum magnitude displayed is 2.5.

Coastal Water Temperatures

Place Temperature
No Stations Reporting

Nearby Weather Stations